Time;durP1;ratioP1;P1;durP2;ratioP2;P2;SDS_P1;SDS_P2;PMS_P1;PMS_P2;Temp;Humidity;BMP_temperature;BMP_pressure;BME280_temperature;BME280_humidity;BME280_pressure;Samples;Min_cycle;Max_cycle;Signal;HPM_P1;HPM_P2
2023/08/10 00:00:23;;;;;;;4.70;1.50;;;;;;;;;;5073907;28;20047;-81
2023/08/10 00:02:48;;;;;;;2.13;1.20;;;;;;;;;;5073986;28;20421;-82
2023/08/10 00:05:14;;;;;;;3.08;1.30;;;;;;;;;;5091613;28;20012;-82
2023/08/10 00:07:40;;;;;;;4.07;1.00;;;;;;;;;;5069746;28;20020;-83
2023/08/10 00:10:08;;;;;;;4.43;2.10;;;;;;;;;;5073090;28;20115;-83
2023/08/10 00:12:35;;;;;;;2.78;1.30;;;;;;;;;;5080176;28;20023;-81
2023/08/10 00:15:00;;;;;;;3.55;1.20;;;;;;;;;;5082301;28;20028;-82
2023/08/10 00:17:28;;;;;;;5.93;1.25;;;;;;;;;;5098526;28;20481;-82
2023/08/10 00:19:57;;;;;;;2.72;1.25;;;;;;;;;;5091102;28;20020;-82
2023/08/10 00:22:22;;;;;;;8.43;1.50;;;;;;;;;;5077253;28;20126;-82
2023/08/10 00:24:48;;;;;;;5.15;1.35;;;;;;;;;;5076041;28;20420;-82
2023/08/10 00:27:14;;;;;;;2.22;1.30;;;;;;;;;;5073605;28;20125;-83
2023/08/10 00:29:39;;;;;;;2.75;1.30;;;;;;;;;;5074693;28;20114;-82
2023/08/10 00:32:05;;;;;;;2.50;1.40;;;;;;;;;;5097222;28;20085;-82
2023/08/10 00:34:31;;;;;;;2.28;1.30;;;;;;;;;;5078956;28;20483;-82
2023/08/10 00:36:57;;;;;;;5.85;1.35;;;;;;;;;;5078692;28;20016;-82
2023/08/10 00:39:22;;;;;;;7.65;1.42;;;;;;;;;;5080616;28;20111;-82
2023/08/10 00:41:48;;;;;;;7.22;1.40;;;;;;;;;;5080372;28;20045;-83
2023/08/10 00:44:16;;;;;;;3.78;1.30;;;;;;;;;;5076165;28;20483;-83
2023/08/10 00:46:41;;;;;;;5.07;1.27;;;;;;;;;;5077607;28;20451;-83
2023/08/10 00:49:10;;;;;;;4.60;1.58;;;;;;;;;;5076670;28;20024;-83
2023/08/10 00:51:35;;;;;;;5.18;1.50;;;;;;;;;;5108050;28;20149;-83
2023/08/10 00:54:02;;;;;;;5.97;1.52;;;;;;;;;;5077188;28;20011;-83
2023/08/10 00:56:27;;;;;;;2.55;1.38;;;;;;;;;;5099459;28;20118;-81
2023/08/10 00:58:59;;;;;;;2.65;1.52;;;;;;;;;;5092122;28;20546;-82
2023/08/10 01:01:26;;;;;;;3.25;1.50;;;;;;;;;;5073792;28;20062;-81
2023/08/10 01:03:52;;;;;;;7.10;1.80;;;;;;;;;;5074481;28;20081;-82
2023/08/10 01:06:19;;;;;;;6.90;1.73;;;;;;;;;;5074435;28;20016;-82
2023/08/10 01:08:51;;;;;;;3.05;1.52;;;;;;;;;;5091807;28;20024;-81
2023/08/10 01:11:35;;;;;;;3.00;1.40;;;;;;;;;;5072936;28;20024;-82
2023/08/10 01:14:25;;;;;;;3.83;1.70;;;;;;;;;;5069403;28;20755;-81
2023/08/10 01:16:51;;;;;;;5.63;1.50;;;;;;;;;;5073645;28;20494;-82
2023/08/10 01:19:22;;;;;;;3.72;1.48;;;;;;;;;;5073308;28;20016;-82
2023/08/10 01:22:09;;;;;;;2.40;1.40;;;;;;;;;;5071871;28;20494;-82
2023/08/10 01:24:39;;;;;;;4.25;1.85;;;;;;;;;;5023014;28;20399;-83
2023/08/10 01:27:04;;;;;;;8.73;1.88;;;;;;;;;;5073126;28;20047;-82
2023/08/10 01:29:30;;;;;;;2.22;1.27;;;;;;;;;;5073288;28;20020;-82
2023/08/10 01:31:55;;;;;;;2.22;1.23;;;;;;;;;;5073535;28;20028;-81
2023/08/10 01:34:24;;;;;;;4.18;1.30;;;;;;;;;;5073234;28;20027;-82
2023/08/10 01:36:51;;;;;;;6.10;1.70;;;;;;;;;;5072474;28;20352;-83
2023/08/10 01:39:25;;;;;;;5.35;1.70;;;;;;;;;;5075378;28;20040;-82
2023/08/10 01:41:52;;;;;;;2.83;1.70;;;;;;;;;;5054195;28;20379;-82
2023/08/10 01:44:17;;;;;;;3.83;1.45;;;;;;;;;;5053198;28;20029;-82
2023/08/10 01:46:46;;;;;;;2.13;1.38;;;;;;;;;;5054194;28;20119;-82
2023/08/10 01:49:12;;;;;;;2.20;1.45;;;;;;;;;;5058423;28;20046;-82
2023/08/10 01:52:01;;;;;;;2.45;1.30;;;;;;;;;;5084205;28;20031;-84
2023/08/10 01:54:27;;;;;;;3.95;1.70;;;;;;;;;;5064948;28;20021;-83
2023/08/10 01:56:52;;;;;;;2.30;1.30;;;;;;;;;;5059422;28;20020;-84
2023/08/10 01:59:18;;;;;;;1.95;1.23;;;;;;;;;;5080692;28;20027;-82
2023/08/10 02:01:48;;;;;;;3.10;1.40;;;;;;;;;;5068191;28;20024;-81
2023/08/10 02:04:15;;;;;;;4.35;1.63;;;;;;;;;;5064740;28;20032;-80
2023/08/10 02:06:41;;;;;;;3.25;1.70;;;;;;;;;;5063206;28;20032;-83
2023/08/10 02:09:06;;;;;;;11.43;1.50;;;;;;;;;;5070988;28;20478;-83
2023/08/10 02:11:32;;;;;;;5.28;1.77;;;;;;;;;;5079084;28;20468;-83
2023/08/10 02:13:57;;;;;;;2.42;1.25;;;;;;;;;;5053696;28;20048;-82
2023/08/10 02:16:23;;;;;;;2.90;1.42;;;;;;;;;;5053411;28;20017;-82
2023/08/10 02:18:50;;;;;;;2.20;1.52;;;;;;;;;;5052752;28;20115;-83
2023/08/10 02:21:18;;;;;;;5.75;1.50;;;;;;;;;;5053832;28;20020;-82
2023/08/10 02:23:43;;;;;;;2.40;1.50;;;;;;;;;;5054207;28;20480;-83
2023/08/10 02:26:09;;;;;;;2.90;1.60;;;;;;;;;;5074612;28;20135;-82
2023/08/10 02:28:34;;;;;;;5.45;1.90;;;;;;;;;;5055514;28;20412;-83
2023/08/10 02:31:04;;;;;;;2.40;1.30;;;;;;;;;;5056849;28;20035;-82
2023/08/10 02:33:29;;;;;;;5.07;1.70;;;;;;;;;;5072843;28;20430;-82
2023/08/10 02:36:01;;;;;;;6.60;1.40;;;;;;;;;;5056722;28;20024;-83
2023/08/10 02:38:26;;;;;;;2.80;1.40;;;;;;;;;;5056300;28;20432;-83
2023/08/10 02:40:54;;;;;;;2.60;1.30;;;;;;;;;;5077223;28;20052;-83
2023/08/10 02:43:19;;;;;;;1.95;1.20;;;;;;;;;;5070238;28;20416;-83
2023/08/10 02:45:45;;;;;;;2.00;1.30;;;;;;;;;;5057213;28;20336;-83
2023/08/10 02:48:10;;;;;;;5.97;1.50;;;;;;;;;;5068031;28;20024;-83
2023/08/10 02:50:36;;;;;;;2.35;1.40;;;;;;;;;;5069518;28;20056;-83
2023/08/10 02:53:01;;;;;;;5.10;1.67;;;;;;;;;;5068762;28;20028;-83
2023/08/10 02:55:39;;;;;;;;;;;;;;;;;;;;;
2023/08/10 02:58:25;;;;;;;2.92;1.60;;;;;;;;;;5099165;28;20071;-82
2023/08/10 03:00:54;;;;;;;2.60;1.35;;;;;;;;;;5067596;28;20043;-82
2023/08/10 03:03:23;;;;;;;2.70;1.30;;;;;;;;;;5059490;28;20028;-83
2023/08/10 03:05:49;;;;;;;1.88;1.30;;;;;;;;;;5062320;28;20028;-83
2023/08/10 03:08:15;;;;;;;2.97;1.48;;;;;;;;;;5089773;28;20093;-83
2023/08/10 03:10:40;;;;;;;2.08;1.33;;;;;;;;;;5081721;28;20086;-81
2023/08/10 03:13:07;;;;;;;3.40;1.45;;;;;;;;;;5080840;28;20451;-81
2023/08/10 03:15:33;;;;;;;3.42;1.25;;;;;;;;;;5087314;28;20023;-81
2023/08/10 03:17:59;;;;;;;3.10;1.40;;;;;;;;;;5103543;28;20009;-80
2023/08/10 03:20:26;;;;;;;2.33;1.23;;;;;;;;;;5078928;28;20030;-82
2023/08/10 03:22:55;;;;;;;3.30;1.45;;;;;;;;;;5075944;28;20013;-84
2023/08/10 03:25:32;;;;;;;5.75;1.40;;;;;;;;;;5077653;28;20027;-84
2023/08/10 03:27:57;;;;;;;4.18;1.40;;;;;;;;;;5074365;28;20024;-83
2023/08/10 03:30:23;;;;;;;2.30;1.38;;;;;;;;;;5059519;28;20099;-83
2023/08/10 03:32:48;;;;;;;3.58;1.75;;;;;;;;;;5054378;28;20043;-82
2023/08/10 03:35:14;;;;;;;3.60;1.80;;;;;;;;;;5073741;28;20051;-84
2023/08/10 03:37:40;;;;;;;2.53;1.48;;;;;;;;;;5055701;28;20025;-84
2023/08/10 03:40:07;;;;;;;3.65;1.48;;;;;;;;;;5055922;28;20017;-83
2023/08/10 03:42:33;;;;;;;6.07;1.35;;;;;;;;;;5053212;28;20024;-84
2023/08/10 03:44:58;;;;;;;2.20;1.33;;;;;;;;;;5054654;28;20471;-83
2023/08/10 03:47:23;;;;;;;6.60;1.60;;;;;;;;;;5055137;28;20115;-83
2023/08/10 03:49:51;;;;;;;2.60;1.55;;;;;;;;;;5055991;28;20017;-84
2023/08/10 03:52:16;;;;;;;4.35;1.63;;;;;;;;;;5055037;28;20035;-83
2023/08/10 03:54:44;;;;;;;4.13;1.80;;;;;;;;;;5055257;28;20020;-83
2023/08/10 03:57:12;;;;;;;4.38;1.52;;;;;;;;;;5050329;28;20067;-83
2023/08/10 03:59:37;;;;;;;2.90;1.60;;;;;;;;;;5053980;28;20420;-83
2023/08/10 04:02:03;;;;;;;3.45;1.63;;;;;;;;;;5053456;28;20166;-83
2023/08/10 04:04:31;;;;;;;2.70;1.55;;;;;;;;;;5054387;28;20111;-84
2023/08/10 04:06:57;;;;;;;8.02;1.92;;;;;;;;;;5054482;28;20115;-83
2023/08/10 04:09:24;;;;;;;5.25;1.45;;;;;;;;;;5055043;28;20119;-84
2023/08/10 04:11:50;;;;;;;2.97;1.80;;;;;;;;;;5052588;28;20031;-83
2023/08/10 04:14:15;;;;;;;5.45;1.75;;;;;;;;;;5055832;28;20452;-83
2023/08/10 04:16:41;;;;;;;3.72;2.15;;;;;;;;;;5063831;28;20030;-81
2023/08/10 04:19:06;;;;;;;5.68;2.05;;;;;;;;;;5054222;28;20016;-81
2023/08/10 04:21:32;;;;;;;3.28;1.80;;;;;;;;;;5054045;28;20123;-81
2023/08/10 04:23:57;;;;;;;3.85;1.88;;;;;;;;;;5055166;28;20021;-81
2023/08/10 04:26:23;;;;;;;3.10;1.90;;;;;;;;;;5056105;28;20609;-81
2023/08/10 04:28:48;;;;;;;5.07;2.38;;;;;;;;;;5055267;28;20024;-81
2023/08/10 04:31:17;;;;;;;6.05;2.17;;;;;;;;;;5057313;28;20035;-84
2023/08/10 04:33:42;;;;;;;3.85;2.05;;;;;;;;;;5056069;28;20098;-81
2023/08/10 04:36:07;;;;;;;4.32;2.13;;;;;;;;;;5056816;28;20289;-81
2023/08/10 04:38:46;;;;;;;3.97;2.03;;;;;;;;;;5063017;28;20066;-83
2023/08/10 04:41:11;;;;;;;9.95;2.28;;;;;;;;;;5080579;28;20087;-83
2023/08/10 04:43:37;;;;;;;2.00;1.40;;;;;;;;;;5055078;28;20021;-84
2023/08/10 04:46:02;;;;;;;4.28;1.77;;;;;;;;;;5054196;28;20062;-83
2023/08/10 04:48:34;;;;;;;2.72;1.80;;;;;;;;;;5062104;28;20080;-83
2023/08/10 04:51:02;;;;;;;2.95;1.60;;;;;;;;;;5047671;28;20048;-83
2023/08/10 04:53:27;;;;;;;3.10;1.80;;;;;;;;;;5065135;28;20028;-82
2023/08/10 04:55:55;;;;;;;9.20;1.73;;;;;;;;;;5059486;28;20032;-82
2023/08/10 04:58:20;;;;;;;6.80;1.73;;;;;;;;;;5082892;28;20094;-83
2023/08/10 05:00:46;;;;;;;3.13;1.40;;;;;;;;;;5058721;28;20120;-83
2023/08/10 05:03:11;;;;;;;4.50;1.50;;;;;;;;;;5061357;28;20110;-82
2023/08/10 05:05:37;;;;;;;2.20;1.48;;;;;;;;;;5062386;28;20021;-83
2023/08/10 05:08:03;;;;;;;3.22;1.83;;;;;;;;;;5066686;28;20111;-82
2023/08/10 05:10:28;;;;;;;11.02;2.17;;;;;;;;;;5082468;28;20054;-83
2023/08/10 05:12:54;;;;;;;4.28;1.60;;;;;;;;;;5054879;28;20025;-83
2023/08/10 05:15:19;;;;;;;5.50;2.00;;;;;;;;;;5052243;28;20077;-82
2023/08/10 05:17:44;;;;;;;7.03;2.20;;;;;;;;;;5054347;28;20475;-83
2023/08/10 05:20:13;;;;;;;7.07;2.72;;;;;;;;;;5072913;28;20023;-82
2023/08/10 05:22:44;;;;;;;5.18;1.73;;;;;;;;;;5058239;28;20541;-82
2023/08/10 05:25:10;;;;;;;3.70;1.92;;;;;;;;;;5073081;28;20027;-82
2023/08/10 05:27:37;;;;;;;16.02;3.17;;;;;;;;;;5065572;28;20380;-82
2023/08/10 05:30:04;;;;;;;3.53;2.03;;;;;;;;;;5051870;28;20111;-83
2023/08/10 05:32:29;;;;;;;8.68;2.20;;;;;;;;;;5071262;28;20028;-83
2023/08/10 05:34:57;;;;;;;8.70;2.00;;;;;;;;;;5054331;28;20055;-82
2023/08/10 05:37:22;;;;;;;8.52;2.10;;;;;;;;;;5071897;28;20025;-83
2023/08/10 05:39:48;;;;;;;5.30;1.80;;;;;;;;;;5053679;28;20103;-83
2023/08/10 05:42:13;;;;;;;4.85;2.17;;;;;;;;;;5054845;28;20484;-83
2023/08/10 05:44:39;;;;;;;4.00;2.20;;;;;;;;;;5061155;28;20081;-82
2023/08/10 05:47:06;;;;;;;5.50;1.80;;;;;;;;;;5060679;28;20029;-83
2023/08/10 05:49:31;;;;;;;3.53;1.80;;;;;;;;;;5058928;28;20025;-81
2023/08/10 05:51:57;;;;;;;3.53;2.17;;;;;;;;;;5052762;28;20743;-82
2023/08/10 05:54:22;;;;;;;4.20;2.00;;;;;;;;;;5048414;28;20028;-82
2023/08/10 05:56:48;;;;;;;2.88;1.88;;;;;;;;;;5050377;28;20067;-82
2023/08/10 05:59:13;;;;;;;3.58;1.95;;;;;;;;;;5051079;28;20024;-82
2023/08/10 06:01:43;;;;;;;3.78;1.77;;;;;;;;;;5053711;28;20028;-81
2023/08/10 06:04:10;;;;;;;4.38;2.17;;;;;;;;;;5057019;28;20021;-81
2023/08/10 06:06:35;;;;;;;11.65;2.67;;;;;;;;;;5054759;28;20028;-81
2023/08/10 06:09:00;;;;;;;7.30;2.60;;;;;;;;;;5073302;28;20032;-82
2023/08/10 06:11:26;;;;;;;4.38;2.58;;;;;;;;;;5057228;28;20020;-81
2023/08/10 06:13:59;;;;;;;5.07;2.50;;;;;;;;;;5056910;28;20016;-82
2023/08/10 06:16:25;;;;;;;6.82;2.60;;;;;;;;;;5057210;28;20017;-82
2023/08/10 06:18:51;;;;;;;8.30;3.00;;;;;;;;;;5055214;28;20021;-81
2023/08/10 06:21:18;;;;;;;5.55;2.78;;;;;;;;;;5055683;28;20471;-82
2023/08/10 06:23:43;;;;;;;4.82;2.65;;;;;;;;;;5057309;28;20032;-82
2023/08/10 06:26:09;;;;;;;6.50;2.58;;;;;;;;;;5077465;28;20535;-82
2023/08/10 06:28:35;;;;;;;4.78;2.50;;;;;;;;;;5067163;28;20040;-82
2023/08/10 06:31:00;;;;;;;5.43;2.13;;;;;;;;;;5073448;28;20078;-82
2023/08/10 06:33:26;;;;;;;7.45;2.40;;;;;;;;;;5055507;28;20028;-83
2023/08/10 06:35:52;;;;;;;4.97;2.80;;;;;;;;;;5056270;28;20021;-82
2023/08/10 06:38:18;;;;;;;2.92;1.60;;;;;;;;;;5053492;28;20020;-82
2023/08/10 06:40:43;;;;;;;5.22;2.28;;;;;;;;;;5034895;28;20629;-82
2023/08/10 06:43:09;;;;;;;7.10;3.08;;;;;;;;;;5031204;28;20147;-82
2023/08/10 06:45:34;;;;;;;7.97;2.20;;;;;;;;;;5062716;28;20012;-83
2023/08/10 06:48:02;;;;;;;2.80;1.77;;;;;;;;;;5067665;28;20027;-83
2023/08/10 06:50:32;;;;;;;4.32;1.88;;;;;;;;;;5074436;28;20092;-82
2023/08/10 06:53:00;;;;;;;8.60;2.47;;;;;;;;;;5087465;28;20434;-83
2023/08/10 06:55:28;;;;;;;7.88;2.08;;;;;;;;;;5066119;28;20016;-85
2023/08/10 06:57:54;;;;;;;6.63;2.20;;;;;;;;;;5074614;28;20028;-85
2023/08/10 07:00:22;;;;;;;4.32;2.20;;;;;;;;;;5054126;28;20559;-85
2023/08/10 07:02:48;;;;;;;3.58;1.98;;;;;;;;;;5060563;28;20019;-86
2023/08/10 07:05:15;;;;;;;6.95;2.00;;;;;;;;;;5065592;28;20024;-84
2023/08/10 07:07:41;;;;;;;3.90;1.88;;;;;;;;;;5063319;28;20025;-85
2023/08/10 07:10:07;;;;;;;14.07;1.95;;;;;;;;;;5075942;28;20055;-83
2023/08/10 07:12:33;;;;;;;4.80;2.03;;;;;;;;;;5068945;28;20025;-82
2023/08/10 07:14:59;;;;;;;6.43;1.73;;;;;;;;;;5061374;28;20105;-85
2023/08/10 07:17:24;;;;;;;14.38;2.50;;;;;;;;;;5070140;28;20021;-85
2023/08/10 07:19:49;;;;;;;3.10;1.80;;;;;;;;;;5071619;28;20026;-85
2023/08/10 07:22:15;;;;;;;8.45;2.00;;;;;;;;;;5081930;28;20103;-84
2023/08/10 07:24:40;;;;;;;5.57;2.00;;;;;;;;;;5076627;28;20387;-86
2023/08/10 07:27:06;;;;;;;8.75;2.13;;;;;;;;;;5071763;28;20032;-85
2023/08/10 07:29:31;;;;;;;6.78;1.75;;;;;;;;;;5074861;28;20325;-85
2023/08/10 07:32:00;;;;;;;2.58;1.60;;;;;;;;;;5054203;28;20029;-84
2023/08/10 07:34:26;;;;;;;2.85;1.58;;;;;;;;;;5069523;28;20044;-85
2023/08/10 07:36:51;;;;;;;3.08;1.48;;;;;;;;;;5081809;28;20027;-85
2023/08/10 07:39:17;;;;;;;7.63;1.92;;;;;;;;;;5081553;28;20017;-85
2023/08/10 07:41:42;;;;;;;3.75;1.58;;;;;;;;;;5058083;28;20368;-85
2023/08/10 07:44:10;;;;;;;5.70;1.40;;;;;;;;;;5072529;28;20031;-85
2023/08/10 07:46:35;;;;;;;4.50;1.30;;;;;;;;;;5065878;28;20027;-82
2023/08/10 07:49:00;;;;;;;3.85;1.60;;;;;;;;;;5056138;28;20024;-85
2023/08/10 07:51:26;;;;;;;4.03;1.35;;;;;;;;;;5062000;28;20510;-84
2023/08/10 07:53:51;;;;;;;3.85;1.25;;;;;;;;;;5054369;28;20471;-85
2023/08/10 07:56:16;;;;;;;4.65;1.50;;;;;;;;;;5067103;28;20016;-86
2023/08/10 07:58:44;;;;;;;6.35;1.58;;;;;;;;;;5061519;28;20020;-88
2023/08/10 08:01:09;;;;;;;2.88;1.20;;;;;;;;;;5071637;28;20004;-88
2023/08/10 08:03:35;;;;;;;3.50;1.67;;;;;;;;;;5052379;28;20017;-88
2023/08/10 08:06:00;;;;;;;4.50;1.63;;;;;;;;;;5080060;28;20032;-88
2023/08/10 08:08:28;;;;;;;4.20;1.10;;;;;;;;;;5062942;28;20050;-88
2023/08/10 08:10:54;;;;;;;5.40;1.30;;;;;;;;;;5063177;28;20107;-88
2023/08/10 08:13:19;;;;;;;3.85;1.20;;;;;;;;;;5063395;28;20116;-88
2023/08/10 08:15:45;;;;;;;4.60;1.02;;;;;;;;;;5059124;28;20143;-88
2023/08/10 08:18:32;;;;;;;4.10;1.05;;;;;;;;;;5059356;28;20379;-88
2023/08/10 08:20:58;;;;;;;3.80;1.65;;;;;;;;;;5069612;28;20044;-88
2023/08/10 08:23:24;;;;;;;1.60;1.10;;;;;;;;;;5057336;28;20390;-87
2023/08/10 08:25:49;;;;;;;5.63;1.30;;;;;;;;;;5056459;28;20024;-88
2023/08/10 08:28:15;;;;;;;2.83;1.30;;;;;;;;;;5056541;28;20027;-87
2023/08/10 08:30:40;;;;;;;3.17;1.30;;;;;;;;;;5074832;28;20024;-87
2023/08/10 08:33:06;;;;;;;7.30;1.30;;;;;;;;;;5062092;28;20151;-82
2023/08/10 08:35:32;;;;;;;4.03;1.20;;;;;;;;;;5055314;28;20100;-81
2023/08/10 08:37:57;;;;;;;3.50;1.40;;;;;;;;;;5045905;28;20040;-82
2023/08/10 08:40:23;;;;;;;4.35;1.08;;;;;;;;;;5060173;28;20024;-82
2023/08/10 08:42:51;;;;;;;3.00;1.10;;;;;;;;;;5057626;28;20071;-82
2023/08/10 08:45:17;;;;;;;2.10;1.20;;;;;;;;;;5056584;28;20024;-84
2023/08/10 08:47:44;;;;;;;1.90;1.10;;;;;;;;;;5073745;28;20036;-80
2023/08/10 08:50:10;;;;;;;4.50;0.90;;;;;;;;;;5070555;28;20039;-80
2023/08/10 08:52:37;;;;;;;2.28;1.13;;;;;;;;;;5064969;28;20066;-81
2023/08/10 08:55:02;;;;;;;1.52;0.88;;;;;;;;;;5067928;28;20025;-81
2023/08/10 08:57:28;;;;;;;1.88;1.13;;;;;;;;;;5057112;28;20031;-81
2023/08/10 08:59:53;;;;;;;2.70;1.00;;;;;;;;;;5075411;28;20024;-80
2023/08/10 09:02:19;;;;;;;2.13;0.90;;;;;;;;;;5063086;28;20028;-80
2023/08/10 09:04:44;;;;;;;1.73;0.77;;;;;;;;;;5087301;28;20042;-80
2023/08/10 09:07:11;;;;;;;5.20;1.30;;;;;;;;;;5063995;28;20424;-83
2023/08/10 09:09:36;;;;;;;2.45;1.10;;;;;;;;;;5070588;28;20051;-82
2023/08/10 09:12:20;;;;;;;2.83;1.33;;;;;;;;;;5048591;28;20127;-81
2023/08/10 09:15:04;;;;;;;1.83;1.10;;;;;;;;;;5063118;28;20112;-82
2023/08/10 09:17:30;;;;;;;4.00;1.10;;;;;;;;;;5048732;28;20025;-82
2023/08/10 09:19:58;;;;;;;4.13;1.38;;;;;;;;;;5083688;28;20111;-82
2023/08/10 09:22:27;;;;;;;3.28;1.30;;;;;;;;;;5069040;28;20028;-82
2023/08/10 09:24:53;;;;;;;3.03;1.13;;;;;;;;;;5080011;28;20032;-82
2023/08/10 09:27:18;;;;;;;1.83;1.15;;;;;;;;;;5056351;28;20036;-84
2023/08/10 09:29:45;;;;;;;4.55;1.30;;;;;;;;;;5051742;28;20347;-86
2023/08/10 09:32:19;;;;;;;4.20;1.20;;;;;;;;;;5055336;28;20036;-86
2023/08/10 09:34:45;;;;;;;4.63;1.13;;;;;;;;;;5067823;28;20810;-85
2023/08/10 09:37:12;;;;;;;2.97;1.35;;;;;;;;;;5042832;28;20032;-85
2023/08/10 09:39:38;;;;;;;3.20;1.48;;;;;;;;;;5052058;28;20032;-85
2023/08/10 09:42:03;;;;;;;3.83;1.42;;;;;;;;;;5058288;28;20059;-85
2023/08/10 09:44:42;;;;;;;3.20;1.33;;;;;;;;;;5057309;28;20032;-85
2023/08/10 09:47:07;;;;;;;3.78;1.55;;;;;;;;;;5059421;28;20039;-85
2023/08/10 09:49:32;;;;;;;2.97;1.33;;;;;;;;;;5057537;28;20020;-85
2023/08/10 09:52:00;;;;;;;2.58;1.45;;;;;;;;;;5053152;28;20134;-85
2023/08/10 09:54:26;;;;;;;3.60;1.13;;;;;;;;;;5056430;28;20028;-85
2023/08/10 09:56:53;;;;;;;5.13;1.00;;;;;;;;;;5057319;28;20038;-85
2023/08/10 09:59:19;;;;;;;1.90;0.80;;;;;;;;;;5072762;28;20310;-84
2023/08/10 10:01:44;;;;;;;1.50;0.90;;;;;;;;;;5057631;28;20466;-84
2023/08/10 10:04:10;;;;;;;4.45;1.02;;;;;;;;;;5057134;28;20096;-84
2023/08/10 10:06:38;;;;;;;2.50;1.20;;;;;;;;;;5059433;28;20369;-85
2023/08/10 10:09:04;;;;;;;1.73;1.10;;;;;;;;;;5051769;28;20115;-84
2023/08/10 10:11:30;;;;;;;4.32;1.40;;;;;;;;;;5049641;28;20020;-84
2023/08/10 10:13:56;;;;;;;3.03;1.40;;;;;;;;;;5073263;28;20386;-84
2023/08/10 10:16:22;;;;;;;2.78;1.38;;;;;;;;;;5059346;28;20024;-84
2023/08/10 10:18:50;;;;;;;2.55;1.45;;;;;;;;;;5083124;28;20080;-84
2023/08/10 10:21:19;;;;;;;3.60;1.48;;;;;;;;;;5076212;28;20363;-83
2023/08/10 10:23:47;;;;;;;2.47;1.38;;;;;;;;;;5074470;28;20028;-84
2023/08/10 10:26:18;;;;;;;3.72;1.40;;;;;;;;;;5056590;28;20036;-84
2023/08/10 10:29:03;;;;;;;3.97;1.13;;;;;;;;;;5043637;28;20480;-83
2023/08/10 10:31:29;;;;;;;2.30;1.63;;;;;;;;;;5055040;28;20020;-83
2023/08/10 10:33:55;;;;;;;2.53;1.20;;;;;;;;;;5065853;28;20017;-84
2023/08/10 10:36:20;;;;;;;2.05;1.27;;;;;;;;;;5056241;28;20115;-83
2023/08/10 10:38:47;;;;;;;3.03;1.52;;;;;;;;;;5055610;28;20108;-83
2023/08/10 10:41:13;;;;;;;1.75;1.17;;;;;;;;;;5056748;28;20024;-83
2023/08/10 10:43:38;;;;;;;4.40;1.05;;;;;;;;;;5056035;28;20111;-84
2023/08/10 10:46:04;;;;;;;1.83;1.08;;;;;;;;;;5055996;28;20032;-83
2023/08/10 10:48:33;;;;;;;4.38;1.25;;;;;;;;;;5056062;28;20047;-84
2023/08/10 10:51:01;;;;;;;2.08;1.15;;;;;;;;;;5056114;28;20439;-84
2023/08/10 10:53:27;;;;;;;2.00;1.02;;;;;;;;;;5071735;28;20479;-84
2023/08/10 10:55:53;;;;;;;1.98;1.30;;;;;;;;;;5056301;28;20460;-84
2023/08/10 10:58:19;;;;;;;4.10;1.50;;;;;;;;;;5057119;28;20108;-83
2023/08/10 11:00:44;;;;;;;4.25;1.42;;;;;;;;;;5067402;28;20020;-84
2023/08/10 11:03:10;;;;;;;2.13;1.20;;;;;;;;;;5062175;28;20037;-84
2023/08/10 11:05:36;;;;;;;5.50;1.60;;;;;;;;;;5076547;28;20473;-84
2023/08/10 11:08:06;;;;;;;2.60;1.35;;;;;;;;;;5060099;28;20023;-84
2023/08/10 11:10:32;;;;;;;11.57;1.20;;;;;;;;;;5058582;28;20117;-84
2023/08/10 11:12:57;;;;;;;2.03;1.30;;;;;;;;;;5048189;28;20467;-83
2023/08/10 11:15:26;;;;;;;2.58;1.38;;;;;;;;;;5055158;28;20101;-84
2023/08/10 11:17:53;;;;;;;5.18;1.38;;;;;;;;;;5056540;28;20395;-83
2023/08/10 11:20:20;;;;;;;2.50;1.50;;;;;;;;;;5073007;28;20024;-84
2023/08/10 11:22:47;;;;;;;2.83;1.17;;;;;;;;;;5063880;28;20025;-84
2023/08/10 11:25:17;;;;;;;2.63;1.10;;;;;;;;;;5059160;28;20028;-89
2023/08/10 11:27:44;;;;;;;5.40;1.35;;;;;;;;;;5072558;28;20063;-89
2023/08/10 11:30:10;;;;;;;2.42;1.48;;;;;;;;;;5058241;28;20028;-89
2023/08/10 11:32:40;;;;;;;2.55;1.40;;;;;;;;;;5076389;28;20024;-89
2023/08/10 11:35:05;;;;;;;4.45;1.35;;;;;;;;;;5052729;28;20035;-89
2023/08/10 11:37:33;;;;;;;5.40;1.60;;;;;;;;;;5055137;28;20021;-89
2023/08/10 11:40:10;;;;;;;2.50;1.30;;;;;;;;;;5056182;28;20445;-86
2023/08/10 11:42:46;;;;;;;1.50;0.90;;;;;;;;;;5081997;28;20135;-86
2023/08/10 11:45:17;;;;;;;6.10;1.33;;;;;;;;;;5055664;28;20384;-86
2023/08/10 11:47:52;;;;;;;2.38;1.10;;;;;;;;;;5057956;28;20036;-86
2023/08/10 11:50:18;;;;;;;5.70;1.35;;;;;;;;;;5057736;28;20027;-86
2023/08/10 11:52:44;;;;;;;2.30;1.33;;;;;;;;;;5059094;28;20029;-87
2023/08/10 11:55:12;;;;;;;1.90;1.17;;;;;;;;;;5057713;28;20032;-86
2023/08/10 11:57:44;;;;;;;2.05;1.02;;;;;;;;;;5054147;28;20020;-86
2023/08/10 12:00:38;;;;;;;1.40;1.17;;;;;;;;;;5054914;28;20828;-86
2023/08/10 12:03:24;;;;;;;2.90;1.33;;;;;;;;;;5055781;28;20033;-86
2023/08/10 12:05:59;;;;;;;3.70;1.08;;;;;;;;;;5047913;28;20048;-86
2023/08/10 12:08:24;;;;;;;2.45;1.23;;;;;;;;;;5055822;28;20036;-86
2023/08/10 12:11:02;;;;;;;7.25;1.70;;;;;;;;;;5058170;28;20124;-86
2023/08/10 12:13:28;;;;;;;2.75;1.20;;;;;;;;;;5054190;28;20451;-85
2023/08/10 12:15:53;;;;;;;3.75;1.40;;;;;;;;;;5055480;28;20021;-87
2023/08/10 12:18:20;;;;;;;2.58;1.20;;;;;;;;;;5056099;28;20016;-87
2023/08/10 12:20:46;;;;;;;2.20;1.23;;;;;;;;;;5056138;28;20039;-87
2023/08/10 12:23:12;;;;;;;3.33;1.20;;;;;;;;;;5055290;28;20128;-86
2023/08/10 12:25:37;;;;;;;3.63;1.60;;;;;;;;;;5055568;28;20498;-86
2023/08/10 12:28:04;;;;;;;3.38;1.30;;;;;;;;;;5056210;28;20065;-87
2023/08/10 12:30:29;;;;;;;1.92;1.35;;;;;;;;;;5055026;28;20024;-87
2023/08/10 12:32:55;;;;;;;2.55;1.10;;;;;;;;;;5052962;28;20017;-86
2023/08/10 12:35:20;;;;;;;2.53;1.33;;;;;;;;;;5053418;28;20317;-86
2023/08/10 12:37:47;;;;;;;3.25;1.10;;;;;;;;;;5055993;28;20028;-86
2023/08/10 12:40:13;;;;;;;5.20;1.20;;;;;;;;;;5072977;28;20013;-87
2023/08/10 12:42:39;;;;;;;2.53;1.20;;;;;;;;;;5055186;28;20020;-86
2023/08/10 12:45:05;;;;;;;1.80;1.25;;;;;;;;;;5054857;28;20407;-87
2023/08/10 12:47:37;;;;;;;2.97;1.40;;;;;;;;;;5054333;28;20026;-87
2023/08/10 12:50:02;;;;;;;4.50;1.45;;;;;;;;;;5054133;28;20021;-87
2023/08/10 12:52:28;;;;;;;2.22;1.10;;;;;;;;;;5053461;28;20021;-87
2023/08/10 12:54:53;;;;;;;2.20;1.38;;;;;;;;;;5055151;28;20380;-86
2023/08/10 12:57:19;;;;;;;2.90;1.35;;;;;;;;;;5077205;28;20022;-86
2023/08/10 12:59:44;;;;;;;3.25;1.17;;;;;;;;;;5073221;28;20141;-86
2023/08/10 13:02:10;;;;;;;2.92;1.40;;;;;;;;;;5054336;28;20028;-87
2023/08/10 13:04:35;;;;;;;3.80;1.20;;;;;;;;;;5054633;28;20024;-86
2023/08/10 13:07:00;;;;;;;2.42;1.30;;;;;;;;;;5054179;28;20025;-87
2023/08/10 13:09:26;;;;;;;2.83;1.33;;;;;;;;;;5055238;28;20107;-87
2023/08/10 13:11:51;;;;;;;5.28;1.30;;;;;;;;;;5054658;28;20464;-87
2023/08/10 13:14:17;;;;;;;2.42;1.10;;;;;;;;;;5054822;28;20054;-87
2023/08/10 13:16:44;;;;;;;2.67;1.33;;;;;;;;;;5053515;28;20024;-87
2023/08/10 13:19:10;;;;;;;4.28;1.20;;;;;;;;;;5054187;28;20024;-87
2023/08/10 13:21:35;;;;;;;2.22;1.30;;;;;;;;;;5054651;28;20093;-87
2023/08/10 13:24:01;;;;;;;3.15;1.38;;;;;;;;;;5054837;28;20027;-87
2023/08/10 13:26:26;;;;;;;2.10;1.40;;;;;;;;;;5054546;28;20024;-86
2023/08/10 13:28:51;;;;;;;2.83;1.27;;;;;;;;;;5052551;28;20126;-87
2023/08/10 13:31:17;;;;;;;2.83;1.40;;;;;;;;;;5070879;28;20460;-87
2023/08/10 13:33:42;;;;;;;2.00;1.23;;;;;;;;;;5054411;28;20531;-87
2023/08/10 13:36:07;;;;;;;2.63;1.50;;;;;;;;;;5054491;28;20100;-87
2023/08/10 13:38:33;;;;;;;3.20;1.20;;;;;;;;;;5054355;28;20760;-86
2023/08/10 13:40:58;;;;;;;3.25;1.35;;;;;;;;;;5054607;28;20021;-87
2023/08/10 13:43:23;;;;;;;2.72;1.52;;;;;;;;;;5053168;28;20058;-87
2023/08/10 13:45:51;;;;;;;5.93;1.45;;;;;;;;;;5054777;28;20020;-87
2023/08/10 13:48:16;;;;;;;2.95;1.45;;;;;;;;;;5071959;28;20028;-86
2023/08/10 13:50:41;;;;;;;3.85;1.38;;;;;;;;;;5072613;28;20024;-87
2023/08/10 13:53:07;;;;;;;1.20;1.10;;;;;;;;;;5054191;28;20111;-87
2023/08/10 13:55:33;;;;;;;4.65;1.33;;;;;;;;;;5053483;28;20456;-87
2023/08/10 13:57:58;;;;;;;2.42;1.10;;;;;;;;;;5053833;28;20032;-87
2023/08/10 14:00:24;;;;;;;2.17;1.30;;;;;;;;;;5072107;28;20095;-87
2023/08/10 14:02:50;;;;;;;2.58;1.33;;;;;;;;;;5071692;28;20020;-87
2023/08/10 14:05:15;;;;;;;1.73;1.27;;;;;;;;;;5088277;28;20466;-85
2023/08/10 14:07:40;;;;;;;2.33;1.20;;;;;;;;;;5054266;28;20482;-87
2023/08/10 14:10:06;;;;;;;2.15;1.10;;;;;;;;;;5053822;28;20035;-87
2023/08/10 14:12:32;;;;;;;2.40;1.33;;;;;;;;;;5053898;28;20031;-87
2023/08/10 14:14:57;;;;;;;2.40;1.52;;;;;;;;;;5054441;28;20024;-86
2023/08/10 14:17:23;;;;;;;2.65;1.55;;;;;;;;;;5054665;28;20495;-87
2023/08/10 14:19:55;;;;;;;3.08;1.45;;;;;;;;;;5056744;28;20103;-87
2023/08/10 14:22:20;;;;;;;2.63;1.30;;;;;;;;;;5059142;28;20371;-87
2023/08/10 14:24:45;;;;;;;2.13;1.38;;;;;;;;;;5075002;28;20036;-87
2023/08/10 14:27:11;;;;;;;2.65;1.42;;;;;;;;;;5055887;28;20027;-87
2023/08/10 14:29:36;;;;;;;5.95;1.58;;;;;;;;;;5054784;28;20131;-87
2023/08/10 14:32:02;;;;;;;2.88;1.20;;;;;;;;;;5058189;28;20392;-87
2023/08/10 14:34:27;;;;;;;3.13;1.60;;;;;;;;;;5057856;28;20460;-87
2023/08/10 14:36:52;;;;;;;3.80;1.35;;;;;;;;;;5075937;28;20016;-87
2023/08/10 14:39:18;;;;;;;4.05;1.30;;;;;;;;;;5057170;28;20020;-87
2023/08/10 14:41:49;;;;;;;2.25;1.33;;;;;;;;;;5057641;28;20027;-87